KLAX/LAX METAR and TAF weather

Enter ICAO airport designator
Station Type Date Time Source
KLAX METAR 2019/04/23 03:53 UTC NOAA

KLAX 230353Z 20005KT 9SM FEW027 16/12 A2995 RMK AO2 SLP141 T01560122


Station Type Date Time Source
KLAX Decoded METAR 2019/04/23 03:53 UTC NOAA

LOS ANGELES INTERNTL AIRPORT, CA, United States (KLAX) 33-56N 118-23W 46M
Apr 22, 2019 - 11:53 PM EDT / 2019.04.23 0353 UTC
Wind: from the SSW (200 degrees) at 6 MPH (5 KT):0
Visibility: 9 mile(s):0
Sky conditions: mostly clear
Temperature: 60.1 F (15.6 C)
Dew Point: 54.0 F (12.2 C)
Relative Humidity: 80%
Pressure (altimeter): 29.95 in. Hg (1014 hPa)
ob: KLAX 230353Z 20005KT 9SM FEW027 16/12 A2995 RMK AO2 SLP141 T01560122
cycle: 4

Station Type Date Time Source
KLAX TAF 2019/04/23 04:57 UTC NOAA

TAF
AMD KLAX 230355Z 2304/2406 15008KT P6SM FEW012
FM230600 VRB03KT P6SM SCT012
FM230800 VRB03KT 5SM BR BKN015
FM231700 26007KT P6SM SKC
FM232000 26014KT P6SM SKC
FM240300 26004KT P6SM SKC

Example: see airport list